Aeroporto :
LOGIN :

Iscrizione | Disclaimer

   EN    FR    IT 

 










Sommario :    VFR   VFR Marginale   IFR   IFR Intensivo   IFR Molto Intensivo
Visibilità : 
Base nubi : 
>= 8 km
>= 3000ft
5 / 8 km
1000 / 3000 ft
1500m / 5 km
500 / 1000 ft
800 / 1500m
200 / 500 ft
< 800m
< 200 ft
Simboli :   Temporali  Nebbia  Neve Forte  Precipitazioni Forti  Vento > 20 kt
SIGMETs :   Varie  Temporali  Ghiacco  Turbolenza  Onda orograficha  Ceneri Vulcaniche






- Altitudine del aeroporto : 2001 ft
- Codice IATA : MAD


LEMD - Madrid

ULTIMO METAR :
  • 260130Z 26006KT 220V280 CAVOK 11/03 Q1020 NOSIG

METARs OBSOLETI :
  • 260100Z 27008KT CAVOK 11/04 Q1020 NOSIG
  • 260030Z 29013KT CAVOK 12/04 Q1020 NOSIG
  • 260000Z 29013KT CAVOK 12/04 Q1020 NOSIG
  • 252330Z 28014KT CAVOK 12/05 Q1020 NOSIG
  • 252300Z 28012KT CAVOK 12/05 Q1020 NOSIG

TAF TAF LEMD
Valido dal 26 a 00 ore il 27 a 06 ore UTC


252300Z 2600/2706 27008KT CAVOK TX17/2615Z TN03/2607Z



MetMap, La meteo Aeronautica in un colpo d'occhio ! - Copyright ORBIFLY Dicembre 2007 - Disclaimer

ORBIFLY MET'MAP TEAM :

Programmazione e sviluppo : Alexandra Zaïnal
Concezione : Baudouin d'Aumeries
Aiuto per la programmazione : Marc-Olivier Méhu
Supporto tecnico e logistico : Manuel Goepfert
Aiuto per la traduzione : Arnaldo La Scala

Contatto : metmap@orbifly.com




FONTI E CREDITI :

   NOAA